Forney's Hourly Summary for Tuesday, May 15, 2018
Hour Temp
(f)
RH
(%)
Solar Rad.
(MJ/m2)
Rainfall
(in)
Wind
(mph)
5/15/2018 12:00 AM 77 71 0 0 2.94
5/15/2018 1:00 AM 76 72 0 0 1.29
5/15/2018 2:00 AM 75 73 0 0 1.16
5/15/2018 3:00 AM 74 71 0 0 2.31
5/15/2018 4:00 AM 74 71 0 0 3.04
5/15/2018 5:00 AM 74 72 0 0 2.27
5/15/2018 6:00 AM 73 73 0 0 3.62
5/15/2018 7:00 AM 72 75 0 0 0.99
5/15/2018 8:00 AM 72 78 0.15 0 1.59
5/15/2018 9:00 AM 73 76 0.49 0 3.2
5/15/2018 10:00 AM 73 78 0.38 0 2.93
5/15/2018 11:00 AM 72 79 0.51 0.03 3.02
5/15/2018 12:00 PM 73 80 0.86 0 2.44
5/15/2018 1:00 PM 75 70 1.79 0 3.96
5/15/2018 2:00 PM 80 58 1.87 0 2.84
5/15/2018 3:00 PM 83 51 1.95 0 2.6
5/15/2018 4:00 PM 85 45 2.42 0 3.28
5/15/2018 5:00 PM 87 38 1.67 0 2.85
5/15/2018 6:00 PM 85 42 0.78 0 1.97
5/15/2018 7:00 PM 83 52 0.45 0 0.91
5/15/2018 8:00 PM 80 53 0.24 0 4
5/15/2018 9:00 PM 74 67 0.01 0 4.22
5/15/2018 10:00 PM 72 70 0 0 2.3
5/15/2018 11:00 PM 71 71 0 0 0.05
Data Summary 76 66 13.57 0.03 2.49